createdAt,value
2018-08-22T00:00:52.313Z,7.80
2018-08-22T00:03:34.936Z,7.90
2018-08-22T00:06:11.073Z,11.73
2018-08-22T00:08:44.756Z,18.15
2018-08-22T00:11:16.331Z,9.83
2018-08-22T00:13:47.141Z,11.23
2018-08-22T00:16:16.585Z,25.93
2018-08-22T00:18:45.798Z,33.03
2018-08-22T00:21:16.079Z,10.53
2018-08-22T00:23:46.030Z,8.00
2018-08-22T00:26:15.233Z,8.30
2018-08-22T00:28:44.552Z,8.90
2018-08-22T00:31:14.262Z,7.17
2018-08-22T00:33:43.796Z,18.70
2018-08-22T00:36:19.228Z,8.30
2018-08-22T00:38:48.663Z,8.13
2018-08-22T00:41:24.685Z,8.27
2018-08-22T00:43:54.640Z,7.67
2018-08-22T00:46:24.464Z,8.13
2018-08-22T00:48:53.982Z,8.50
2018-08-22T00:51:23.346Z,7.87
2018-08-22T00:53:53.208Z,7.53
2018-08-22T00:56:22.479Z,7.33
2018-08-22T00:58:51.925Z,7.03
2018-08-22T01:01:21.316Z,7.77
2018-08-22T01:03:50.713Z,7.13
2018-08-22T01:06:20.426Z,7.40
2018-08-22T01:08:50.438Z,7.07
2018-08-22T01:11:20.009Z,6.90
2018-08-22T01:13:49.279Z,6.97
2018-08-22T01:16:18.493Z,7.33
2018-08-22T01:18:48.436Z,7.90
2018-08-22T01:21:17.814Z,6.60
2018-08-22T01:23:47.142Z,8.40
2018-08-22T01:26:16.308Z,7.10
2018-08-22T01:28:47.179Z,7.83
2018-08-22T01:31:17.386Z,7.70
2018-08-22T01:33:47.793Z,6.73
2018-08-22T01:36:17.115Z,8.40
2018-08-22T01:38:46.343Z,7.10
2018-08-22T01:41:15.867Z,7.53
2018-08-22T01:43:45.686Z,6.93
2018-08-22T01:46:15.014Z,7.23
2018-08-22T01:48:45.043Z,7.10
2018-08-22T01:51:14.962Z,6.70
2018-08-22T01:53:44.298Z,7.73
2018-08-22T01:56:14.316Z,7.03
2018-08-22T01:58:43.828Z,8.27
2018-08-22T02:01:15.349Z,6.63
2018-08-22T02:03:45.095Z,6.70
2018-08-22T02:06:14.473Z,5.10
2018-08-22T02:08:43.811Z,6.73
2018-08-22T02:11:13.368Z,7.30
2018-08-22T02:13:44.499Z,6.37
2018-08-22T02:16:13.842Z,6.20
2018-08-22T02:18:43.002Z,6.27
2018-08-22T02:21:12.405Z,7.07
2018-08-22T02:23:41.659Z,6.13
2018-08-22T02:26:12.596Z,5.40
2018-08-22T02:28:42.446Z,5.33
2018-08-22T02:31:12.074Z,8.07
2018-08-22T02:33:42.659Z,6.07
2018-08-22T02:36:12.960Z,6.10
2018-08-22T02:38:42.290Z,8.27
2018-08-22T02:41:11.932Z,5.77
2018-08-22T02:43:41.082Z,5.37
2018-08-22T02:46:10.437Z,11.57
2018-08-22T02:48:45.858Z,6.40
2018-08-22T02:51:15.882Z,4.73
2018-08-22T02:53:46.198Z,5.17
2018-08-22T02:56:15.760Z,5.63
2018-08-22T02:58:45.981Z,4.33
2018-08-22T03:01:15.911Z,4.57
2018-08-22T03:03:46.305Z,5.00
2018-08-22T03:06:15.878Z,5.23
2018-08-22T03:08:47.415Z,5.50
2018-08-22T03:11:17.578Z,5.00
2018-08-22T03:13:47.146Z,5.70
2018-08-22T03:16:17.373Z,4.73
2018-08-22T03:18:46.783Z,5.10
2018-08-22T03:21:16.016Z,5.60
2018-08-22T03:23:46.348Z,5.13
2018-08-22T03:26:15.660Z,4.70
2018-08-22T03:28:44.924Z,5.70
2018-08-22T03:31:14.095Z,5.10
2018-08-22T03:33:43.404Z,5.70
2018-08-22T03:36:13.517Z,5.47
2018-08-22T03:38:43.499Z,4.90
2018-08-22T03:41:12.952Z,5.43
2018-08-22T03:43:42.523Z,5.57
2018-08-22T03:46:11.901Z,6.27
2018-08-22T03:48:41.158Z,4.73
2018-08-22T03:51:10.357Z,5.77
2018-08-22T03:53:39.737Z,6.30
2018-08-22T03:56:09.266Z,6.33
2018-08-22T03:58:38.434Z,6.43
2018-08-22T04:01:07.608Z,6.30
2018-08-22T04:03:36.833Z,4.80
2018-08-22T04:06:06.348Z,6.17
2018-08-22T04:08:35.755Z,6.00
2018-08-22T04:11:04.984Z,7.43
2018-08-22T04:13:34.161Z,6.70
2018-08-22T04:16:04.357Z,6.43
2018-08-22T04:18:33.637Z,6.30
2018-08-22T04:21:02.936Z,6.43
2018-08-22T04:23:32.276Z,6.60
2018-08-22T04:26:01.653Z,6.57
2018-08-22T04:28:30.962Z,6.97
2018-08-22T04:31:00.274Z,6.00
2018-08-22T04:33:29.866Z,5.20
2018-08-22T04:35:59.257Z,13.07
2018-08-22T04:38:28.564Z,94.70
2018-08-22T04:41:02.284Z,5.90
2018-08-22T04:43:32.436Z,5.73
2018-08-22T04:46:01.648Z,6.73
2018-08-22T04:48:31.595Z,6.23
2018-08-22T04:51:01.620Z,6.03
2018-08-22T04:53:31.189Z,5.87
2018-08-22T04:56:00.431Z,6.77
2018-08-22T04:58:29.668Z,7.00
2018-08-22T05:00:59.696Z,6.23
2018-08-22T05:03:29.830Z,5.90
2018-08-22T05:05:59.244Z,5.70
2018-08-22T05:08:28.613Z,6.07
2018-08-22T05:10:58.519Z,6.00
2018-08-22T05:13:27.817Z,6.20
2018-08-22T05:15:57.233Z,6.60
2018-08-22T05:18:26.496Z,6.20
2018-08-22T05:20:55.945Z,5.93
2018-08-22T05:23:25.739Z,7.90
2018-08-22T05:25:54.997Z,6.53
2018-08-22T05:28:25.903Z,6.80
2018-08-22T05:30:56.089Z,5.83
2018-08-22T05:33:25.960Z,6.03
2018-08-22T05:35:55.764Z,6.43
2018-08-22T05:38:28.833Z,6.13
2018-08-22T05:40:59.131Z,6.23
2018-08-22T05:43:29.085Z,6.70
2018-08-22T05:46:02.195Z,7.50
2018-08-22T05:48:32.021Z,9.37
2018-08-22T05:51:01.353Z,7.60
2018-08-22T05:53:30.748Z,7.13
2018-08-22T05:56:10.347Z,7.50
2018-08-22T05:58:40.239Z,7.77
2018-08-22T06:01:19.828Z,6.90
2018-08-22T06:03:51.998Z,7.50
2018-08-22T06:06:21.448Z,7.10
2018-08-22T06:08:51.869Z,6.50
2018-08-22T06:11:24.365Z,7.37
2018-08-22T06:13:54.005Z,7.00
2018-08-22T06:16:23.799Z,10.57
2018-08-22T06:18:54.685Z,7.37
2018-08-22T06:21:23.997Z,6.87
2018-08-22T06:23:53.648Z,6.80
2018-08-22T06:26:24.912Z,6.53
2018-08-22T06:28:54.399Z,6.90
2018-08-22T06:31:23.873Z,6.80
2018-08-22T06:33:53.714Z,7.17
2018-08-22T06:36:23.069Z,6.43
2018-08-22T06:38:53.037Z,5.50
2018-08-22T06:41:22.578Z,8.93
2018-08-22T06:43:52.216Z,6.00
2018-08-22T06:46:21.889Z,39.80
2018-08-22T06:48:51.330Z,6.00
2018-08-22T06:51:20.911Z,5.47
2018-08-22T06:53:51.237Z,6.57
2018-08-22T06:56:20.752Z,5.00
2018-08-22T06:58:52.549Z,6.63
2018-08-22T07:01:21.888Z,5.80
2018-08-22T07:03:53.765Z,5.40
2018-08-22T07:06:24.177Z,5.63
2018-08-22T07:08:53.756Z,6.83
2018-08-22T07:11:23.631Z,5.40
2018-08-22T07:13:53.602Z,5.70
2018-08-22T07:16:23.118Z,5.00
2018-08-22T07:18:52.397Z,6.57
2018-08-22T07:21:24.483Z,7.83
2018-08-22T07:23:55.712Z,6.33
2018-08-22T07:26:24.980Z,6.40
2018-08-22T07:28:54.500Z,7.57
2018-08-22T07:31:23.850Z,5.83
2018-08-22T07:33:53.520Z,7.07
2018-08-22T07:36:23.131Z,6.43
2018-08-22T07:38:54.175Z,7.33
2018-08-22T07:41:23.612Z,7.40
2018-08-22T07:43:56.171Z,8.30
2018-08-22T07:46:27.345Z,7.47
2018-08-22T07:48:56.766Z,9.73
2018-08-22T07:51:27.579Z,9.57
2018-08-22T07:53:57.265Z,8.83
2018-08-22T07:56:27.196Z,11.73
2018-08-22T07:59:07.997Z,10.43
2018-08-22T08:01:39.387Z,10.43
2018-08-22T08:04:10.118Z,11.10
2018-08-22T08:06:40.630Z,11.80
2018-08-22T08:09:14.603Z,11.20
2018-08-22T08:11:45.905Z,12.93
2018-08-22T08:14:16.580Z,11.57
2018-08-22T08:16:45.927Z,12.73
2018-08-22T08:19:15.286Z,9.77
2018-08-22T08:21:44.689Z,9.90
2018-08-22T08:24:13.857Z,10.80
2018-08-22T08:26:43.930Z,10.50
2018-08-22T08:29:14.487Z,7.70
2018-08-22T08:31:44.046Z,9.83
2018-08-22T08:34:29.448Z,8.30
2018-08-22T08:37:00.313Z,9.40
2018-08-22T08:39:34.431Z,11.60
2018-08-22T08:42:06.848Z,8.70
2018-08-22T08:44:36.386Z,8.87
2018-08-22T08:47:05.723Z,11.40
2018-08-22T08:49:35.169Z,7.67
2018-08-22T08:52:05.401Z,6.20
2018-08-22T08:54:35.802Z,6.97
2018-08-22T08:57:05.248Z,7.90
2018-08-22T08:59:35.707Z,11.00
2018-08-22T09:02:05.346Z,8.87
2018-08-22T09:04:46.119Z,7.30
2018-08-22T09:07:16.052Z,6.60
2018-08-22T09:09:45.950Z,7.23
2018-08-22T09:12:19.565Z,8.47
2018-08-22T09:14:49.875Z,7.20
2018-08-22T09:17:21.000Z,8.00
2018-08-22T09:19:50.296Z,6.63
2018-08-22T09:22:21.216Z,7.43
2018-08-22T09:25:01.899Z,5.90
2018-08-22T09:27:31.447Z,6.33
2018-08-22T09:30:03.059Z,7.57
2018-08-22T09:32:33.899Z,7.17
2018-08-22T09:35:05.209Z,7.00
2018-08-22T09:37:37.236Z,5.40
2018-08-22T09:40:07.393Z,5.60
2018-08-22T09:42:37.942Z,6.00
2018-08-22T09:45:08.346Z,7.50
2018-08-22T09:47:41.142Z,6.50
2018-08-22T09:50:16.167Z,7.83
2018-08-22T09:52:47.345Z,7.83
2018-08-22T09:55:18.078Z,8.10
2018-08-22T09:57:48.083Z,8.17
2018-08-22T10:00:23.654Z,8.25
2018-08-22T10:02:54.232Z,11.00
2018-08-22T10:05:23.677Z,7.08
2018-08-22T10:07:53.712Z,7.42
2018-08-22T10:10:24.961Z,11.08
2018-08-22T10:13:01.735Z,8.53
2018-08-22T10:15:31.822Z,14.53
2018-08-22T10:18:03.199Z,10.50
2018-08-22T10:20:34.592Z,13.18
2018-08-22T10:23:06.790Z,10.65
2018-08-22T10:25:38.320Z,11.60
2018-08-22T10:28:08.090Z,11.12
2018-08-22T10:30:37.755Z,11.55
2018-08-22T10:33:08.511Z,9.65
2018-08-22T10:35:39.932Z,9.30
2018-08-22T10:38:11.852Z,7.67
2018-08-22T10:40:41.274Z,11.40
2018-08-22T10:43:11.026Z,11.70
2018-08-22T10:45:47.576Z,11.18
2018-08-22T10:48:16.998Z,10.40
2018-08-22T10:50:48.717Z,11.45
2018-08-22T10:53:20.759Z,10.88
2018-08-22T10:55:51.199Z,10.25
2018-08-22T10:58:21.574Z,9.08
2018-08-22T11:00:51.732Z,8.33
2018-08-22T11:03:22.381Z,10.88
2018-08-22T11:05:53.303Z,8.53
2018-08-22T11:08:23.942Z,9.97
2018-08-22T11:10:54.583Z,9.40
2018-08-22T11:13:24.850Z,9.43
2018-08-22T11:15:57.629Z,11.18
2018-08-22T11:18:28.429Z,11.08
2018-08-22T11:21:11.245Z,10.23
2018-08-22T11:23:53.044Z,7.85
2018-08-22T11:26:33.632Z,6.08
2018-08-22T11:29:16.240Z,8.08
2018-08-22T11:31:58.861Z,7.33
2018-08-22T11:34:42.130Z,7.62
2018-08-22T11:37:21.546Z,8.30
2018-08-22T11:39:56.208Z,17.63
2018-08-22T11:42:27.108Z,8.60
2018-08-22T11:44:59.151Z,8.10
2018-08-22T11:47:28.930Z,9.47
2018-08-22T11:50:03.222Z,7.58
2018-08-22T11:52:33.085Z,7.78
2018-08-22T11:55:06.409Z,8.43
2018-08-22T11:57:37.381Z,8.95
2018-08-22T12:00:10.478Z,11.95
2018-08-22T12:02:40.997Z,9.60
2018-08-22T12:05:11.033Z,7.47
2018-08-22T12:07:42.189Z,8.95
2018-08-22T12:10:13.961Z,7.67
2018-08-22T12:12:44.417Z,9.20
2018-08-22T12:15:16.225Z,9.38
2018-08-22T12:17:46.652Z,12.40
2018-08-22T12:20:25.552Z,10.50
2018-08-22T12:22:55.695Z,12.13
2018-08-22T12:25:26.062Z,9.03
2018-08-22T12:30:33.022Z,13.13
2018-08-22T12:33:10.888Z,9.77
2018-08-22T12:35:40.878Z,8.90
2018-08-22T12:38:11.933Z,8.63
2018-08-22T12:40:44.200Z,9.97
2018-08-22T12:43:26.157Z,9.77
2018-08-22T12:45:58.284Z,10.50
2018-08-22T12:48:31.969Z,7.30
2018-08-22T12:51:02.253Z,9.47
2018-08-22T12:57:35.734Z,9.50
2018-08-22T13:00:06.586Z,10.63
2018-08-22T13:02:38.734Z,8.60
2018-08-22T13:05:10.227Z,8.80
2018-08-22T13:07:40.040Z,9.00
2018-08-22T13:10:11.230Z,8.17
2018-08-22T13:12:44.819Z,7.77
2018-08-22T13:15:14.486Z,7.20
2018-08-22T13:17:46.377Z,7.53
2018-08-22T13:20:19.345Z,7.50
2018-08-22T13:22:50.483Z,8.90
2018-08-22T13:25:21.154Z,10.30
2018-08-22T13:27:52.909Z,8.00
2018-08-22T13:30:24.618Z,7.23
2018-08-22T13:32:56.123Z,7.70
2018-08-22T13:35:29.625Z,6.27
2018-08-22T13:38:03.085Z,7.83
2018-08-22T13:40:36.040Z,9.63
2018-08-22T13:43:17.587Z,12.87
2018-08-22T13:46:11.897Z,7.50
2018-08-22T13:48:47.633Z,8.40
2018-08-22T13:51:18.074Z,7.13
2018-08-22T13:53:48.400Z,9.00
2018-08-22T13:56:19.682Z,8.20
2018-08-22T13:58:50.622Z,7.30
2018-08-22T14:01:21.429Z,8.37
2018-08-22T14:03:53.176Z,8.90
2018-08-22T14:06:55.355Z,8.77
2018-08-22T14:09:36.088Z,9.33
2018-08-22T14:12:06.588Z,9.57
2018-08-22T14:14:38.101Z,10.67
2018-08-22T14:17:08.472Z,10.23
2018-08-22T14:19:39.073Z,12.27
2018-08-22T14:22:09.315Z,11.10
2018-08-22T14:24:40.557Z,9.43
2018-08-22T14:27:21.933Z,10.57
2018-08-22T14:29:55.442Z,10.67
2018-08-22T14:32:26.195Z,9.70
2018-08-22T14:35:01.741Z,8.80
2018-08-22T14:37:34.329Z,9.10
2018-08-22T14:40:05.953Z,9.40
2018-08-22T14:42:39.653Z,10.37
2018-08-22T14:45:18.478Z,9.10
2018-08-22T14:47:48.489Z,10.00
2018-08-22T14:50:19.966Z,9.23
2018-08-22T14:52:54.998Z,9.80
2018-08-22T14:55:25.365Z,9.27
2018-08-22T14:57:57.283Z,8.50
2018-08-22T15:00:28.609Z,14.43
2018-08-22T15:03:03.075Z,11.00
2018-08-22T15:05:36.267Z,10.03
2018-08-22T15:08:10.735Z,11.40
2018-08-22T15:13:43.268Z,12.10
2018-08-22T15:16:16.892Z,10.90
2018-08-22T15:18:47.415Z,10.57
2018-08-22T15:21:20.598Z,10.30
2018-08-22T15:24:10.078Z,12.40
2018-08-22T15:26:40.156Z,11.57
2018-08-22T15:29:14.105Z,12.53
2018-08-22T15:31:45.078Z,11.50
2018-08-22T15:34:18.417Z,10.63
2018-08-22T15:36:51.682Z,10.40
2018-08-22T15:39:23.181Z,11.60
2018-08-22T15:41:53.184Z,12.30
2018-08-22T15:44:23.888Z,18.57
2018-08-22T15:46:53.484Z,12.67
2018-08-22T15:49:26.195Z,12.73
2018-08-22T15:51:56.291Z,12.90
2018-08-22T15:54:26.464Z,14.80
2018-08-22T15:56:58.403Z,12.83
2018-08-22T15:59:38.901Z,15.13
2018-08-22T16:02:12.929Z,15.93
2018-08-22T16:04:54.626Z,13.07
2018-08-22T16:07:28.432Z,14.90
2018-08-22T16:10:00.458Z,14.70
2018-08-22T16:12:35.208Z,13.50
2018-08-22T16:15:16.087Z,14.30
2018-08-22T16:17:59.084Z,15.57
2018-08-22T16:20:30.580Z,13.67
2018-08-22T16:23:07.487Z,16.00
2018-08-22T16:25:46.572Z,24.23
2018-08-22T16:28:24.377Z,18.00
2018-08-22T16:31:07.887Z,16.77
2018-08-22T16:33:41.719Z,17.13
2018-08-22T16:36:35.177Z,16.43
2018-08-22T16:39:07.659Z,18.47
2018-08-22T16:41:41.830Z,16.67
2018-08-22T16:44:13.849Z,18.37
2018-08-22T16:46:44.298Z,18.10
2018-08-22T16:49:18.452Z,18.27
2018-08-22T16:51:53.222Z,15.93
2018-08-22T16:54:25.191Z,17.83
2018-08-22T16:57:01.440Z,19.13
2018-08-22T16:59:34.450Z,16.10
2018-08-22T17:02:15.552Z,19.40
2018-08-22T17:04:49.501Z,18.23
2018-08-22T17:07:22.443Z,18.33
2018-08-22T17:09:53.623Z,18.13
2018-08-22T17:12:32.257Z,15.73
2018-08-22T17:15:12.442Z,17.40
2018-08-22T17:17:50.615Z,20.47
2018-08-22T17:20:21.741Z,24.33
2018-08-22T17:22:55.187Z,20.17
2018-08-22T17:25:28.680Z,16.90
2018-08-22T17:28:41.327Z,16.40
2018-08-22T17:31:28.762Z,17.90
2018-08-22T17:34:06.095Z,18.57
2018-08-22T17:36:46.809Z,20.53
2018-08-22T17:39:21.109Z,19.80
2018-08-22T17:41:52.784Z,19.03
2018-08-22T17:44:27.840Z,20.53
2018-08-22T17:47:00.000Z,17.50
2018-08-22T17:49:34.302Z,36.97
2018-08-22T17:52:13.382Z,16.55
2018-08-22T17:54:45.207Z,16.93
2018-08-22T17:57:28.953Z,21.37
2018-08-22T18:00:03.074Z,19.53
2018-08-22T18:02:35.335Z,15.87
2018-08-22T18:05:28.529Z,14.90
2018-08-22T18:08:27.893Z,15.77
2018-08-22T18:17:04.647Z,15.60
2018-08-22T18:19:39.327Z,16.10
2018-08-22T18:22:14.993Z,18.60
2018-08-22T18:24:52.331Z,23.00
2018-08-22T18:27:24.435Z,19.40
2018-08-22T18:29:58.655Z,19.43
2018-08-22T18:32:33.443Z,23.00
2018-08-22T18:35:09.708Z,22.37
2018-08-22T18:37:43.262Z,15.67
2018-08-22T18:40:36.789Z,14.83
2018-08-22T18:43:08.278Z,15.50
2018-08-22T18:46:09.803Z,15.20
2018-08-22T18:48:42.581Z,15.73
2018-08-22T18:51:16.008Z,16.70
2018-08-22T18:53:55.600Z,17.47
2018-08-22T18:56:32.891Z,14.37
2018-08-22T18:59:16.866Z,16.37
2018-08-22T19:01:52.317Z,15.10
2018-08-22T19:04:29.668Z,17.00
2018-08-22T19:07:14.079Z,15.30
2018-08-22T19:09:46.596Z,15.57
2018-08-22T19:12:27.431Z,17.80
2018-08-22T19:15:01.313Z,15.53
2018-08-22T19:17:34.312Z,17.20
2018-08-22T19:20:06.717Z,17.93
2018-08-22T19:22:39.112Z,15.73
2018-08-22T19:25:12.903Z,17.23
2018-08-22T19:27:48.573Z,32.80
2018-08-22T19:30:30.778Z,23.40
2018-08-22T19:33:07.689Z,21.83
2018-08-22T19:35:48.690Z,18.90
2018-08-22T19:38:31.926Z,17.47
2018-08-22T19:41:18.709Z,21.43
2018-08-22T19:44:06.930Z,21.70
2018-08-22T19:46:49.429Z,20.03
2018-08-22T19:49:34.422Z,18.63
2018-08-22T19:52:13.826Z,19.10
2018-08-22T19:54:47.780Z,17.83
2018-08-22T19:57:23.268Z,26.07
2018-08-22T19:59:55.353Z,17.53
2018-08-22T20:02:50.106Z,17.87
2018-08-22T20:05:52.345Z,18.03
2018-08-22T20:08:37.719Z,25.73
2018-08-22T20:11:11.216Z,18.80
2018-08-22T20:13:56.672Z,17.57
2018-08-22T20:16:41.500Z,20.53
2018-08-22T20:19:16.079Z,20.17
2018-08-22T20:21:47.511Z,20.67
2018-08-22T20:24:27.461Z,22.27
2018-08-22T20:27:06.289Z,23.90
2018-08-22T20:29:41.798Z,26.80
2018-08-22T20:32:28.458Z,51.97
2018-08-22T20:35:03.119Z,24.90
2018-08-22T20:37:43.283Z,20.10
2018-08-22T20:40:19.333Z,21.70
2018-08-22T20:43:08.331Z,19.70
2018-08-22T20:45:40.421Z,22.53
2018-08-22T20:48:26.293Z,20.23
2018-08-22T20:51:04.883Z,18.73
2018-08-22T20:53:37.604Z,21.37
2018-08-22T20:56:09.095Z,23.93
2018-08-22T20:58:42.674Z,24.77
2018-08-22T21:01:19.186Z,24.70
2018-08-22T21:03:57.716Z,26.30
2018-08-22T21:06:36.381Z,23.93
2018-08-22T21:09:13.592Z,25.70
2018-08-22T21:11:46.397Z,30.50
2018-08-22T21:14:24.756Z,25.60
2018-08-22T21:17:05.749Z,31.60
2018-08-22T21:19:36.713Z,30.30
2018-08-22T21:22:17.265Z,35.73
2018-08-22T21:24:47.940Z,33.93
2018-08-22T21:27:24.750Z,35.63
2018-08-22T21:30:01.766Z,34.70
2018-08-22T21:32:38.040Z,38.47
2018-08-22T21:35:45.757Z,39.07
2018-08-22T21:38:42.082Z,37.00
2018-08-22T21:41:18.811Z,40.60
2018-08-22T21:43:57.076Z,38.43
2018-08-22T21:46:36.044Z,39.47
2018-08-22T21:49:17.186Z,38.20
2018-08-22T21:51:50.103Z,44.00
2018-08-22T21:54:27.592Z,44.97
2018-08-22T21:57:09.829Z,48.70
2018-08-22T21:59:43.799Z,48.80
2018-08-22T22:02:20.869Z,42.57
2018-08-22T22:08:08.916Z,44.17
2018-08-22T22:10:43.216Z,47.30
2018-08-22T22:16:11.363Z,41.60
2018-08-22T22:18:56.315Z,47.17
2018-08-22T22:21:57.932Z,42.40
2018-08-22T22:24:31.845Z,42.23
2018-08-22T22:27:03.350Z,48.13
2018-08-22T22:29:34.948Z,40.80
2018-08-22T22:32:15.828Z,40.73
2018-08-22T22:34:46.828Z,42.27
2018-08-22T22:37:26.611Z,42.93
2018-08-22T22:40:13.917Z,41.70
2018-08-22T22:42:47.334Z,38.57
2018-08-22T22:45:17.870Z,42.63
2018-08-22T22:47:50.607Z,42.13
2018-08-22T22:50:22.872Z,41.60
2018-08-22T22:52:55.111Z,46.67
2018-08-22T22:55:26.508Z,46.20
2018-08-22T22:57:56.698Z,43.37
2018-08-22T23:00:26.462Z,44.17
2018-08-22T23:03:01.442Z,45.80
2018-08-22T23:05:35.003Z,48.47
2018-08-22T23:08:06.903Z,45.97
2018-08-22T23:10:36.893Z,40.93
2018-08-22T23:13:08.336Z,41.90
2018-08-22T23:15:38.102Z,40.90
2018-08-22T23:18:16.027Z,43.70
2018-08-22T23:20:46.665Z,40.63
2018-08-22T23:23:29.398Z,43.50
2018-08-22T23:26:14.814Z,46.03
2018-08-22T23:28:45.793Z,44.10
2018-08-22T23:31:21.212Z,43.53
2018-08-22T23:33:52.467Z,49.90
2018-08-22T23:36:23.216Z,47.13
2018-08-22T23:38:52.715Z,45.37
2018-08-22T23:41:22.133Z,47.53
2018-08-22T23:43:54.365Z,45.30
2018-08-22T23:46:25.241Z,48.77
2018-08-22T23:48:58.282Z,47.47
2018-08-22T23:51:28.270Z,44.10
2018-08-22T23:55:02.772Z,46.90
2018-08-22T23:57:32.115Z,48.67
